createdAt,value
2023-01-23T00:01:20.782Z,1.52
2023-01-23T00:03:47.924Z,1.52
2023-01-23T00:06:16.902Z,1.27
2023-01-23T00:08:45.877Z,1.50
2023-01-23T00:11:15.714Z,1.60
2023-01-23T00:13:42.789Z,1.73
2023-01-23T00:16:13.873Z,1.52
2023-01-23T00:18:41.373Z,2.20
2023-01-23T00:21:11.110Z,2.05
2023-01-23T00:23:38.350Z,2.05
2023-01-23T00:26:07.788Z,2.83
2023-01-23T00:28:35.759Z,2.42
2023-01-23T00:31:07.910Z,2.00
2023-01-23T00:33:35.158Z,1.88
2023-01-23T00:36:02.898Z,1.95
2023-01-23T00:38:30.101Z,1.83
2023-01-23T00:40:57.240Z,2.13
2023-01-23T00:43:25.600Z,2.10
2023-01-23T00:45:52.653Z,1.63
2023-01-23T00:48:19.838Z,1.98
2023-01-23T00:50:47.910Z,2.50
2023-01-23T00:53:15.300Z,2.10
2023-01-23T00:55:42.644Z,2.45
2023-01-23T00:58:10.216Z,1.95
2023-01-23T01:00:38.357Z,2.30
2023-01-23T01:03:06.262Z,2.22
2023-01-23T01:05:34.340Z,2.17
2023-01-23T01:08:01.653Z,2.88
2023-01-23T01:10:29.805Z,2.30
2023-01-23T01:12:58.294Z,2.70
2023-01-23T01:15:25.816Z,2.33
2023-01-23T01:17:56.011Z,2.17
2023-01-23T01:20:26.318Z,3.08
2023-01-23T01:22:55.070Z,2.65
2023-01-23T01:25:22.212Z,2.20
2023-01-23T01:27:49.375Z,2.20
2023-01-23T01:30:18.905Z,2.33
2023-01-23T01:32:46.197Z,2.50
2023-01-23T01:35:13.432Z,2.90
2023-01-23T01:37:42.478Z,2.80
2023-01-23T01:40:14.240Z,2.45
2023-01-23T01:42:44.235Z,1.73
2023-01-23T01:45:48.988Z,1.85
2023-01-23T01:50:43.592Z,2.08
2023-01-23T01:53:12.058Z,2.60
2023-01-23T01:55:40.225Z,2.60
2023-01-23T01:58:08.648Z,1.90
2023-01-23T02:00:36.535Z,2.08
2023-01-23T02:03:04.078Z,2.10
2023-01-23T02:05:43.026Z,2.33
2023-01-23T02:08:14.997Z,1.92
2023-01-23T02:10:44.408Z,2.50
2023-01-23T02:13:34.251Z,2.05
2023-01-23T02:16:04.262Z,1.73
2023-01-23T02:18:33.126Z,1.92
2023-01-23T02:21:04.000Z,1.92
2023-01-23T02:23:33.753Z,2.00
2023-01-23T02:26:05.463Z,2.17
2023-01-23T02:28:44.799Z,2.10
2023-01-23T02:31:13.117Z,1.98
2023-01-23T02:33:40.161Z,1.67
2023-01-23T02:36:09.261Z,2.08
2023-01-23T02:38:42.109Z,1.67
2023-01-23T02:41:12.707Z,2.17
2023-01-23T02:43:39.853Z,1.80
2023-01-23T02:46:10.046Z,2.10
2023-01-23T02:48:40.392Z,2.17
2023-01-23T02:51:07.948Z,2.00
2023-01-23T02:53:35.023Z,2.00
2023-01-23T02:56:02.131Z,2.17
2023-01-23T02:58:47.642Z,2.33
2023-01-23T03:01:14.740Z,2.53
2023-01-23T03:03:44.445Z,1.63
2023-01-23T03:06:11.941Z,2.13
2023-01-23T03:08:48.665Z,2.05
2023-01-23T03:11:18.404Z,2.55
2023-01-23T03:13:47.054Z,2.20
2023-01-23T03:16:14.511Z,1.95
2023-01-23T03:18:53.401Z,1.98
2023-01-23T03:21:21.678Z,2.20
2023-01-23T03:23:48.833Z,2.70
2023-01-23T03:26:16.310Z,2.72
2023-01-23T03:29:01.947Z,2.30
2023-01-23T03:31:29.112Z,2.33
2023-01-23T03:33:56.215Z,3.03
2023-01-23T03:36:23.303Z,2.53
2023-01-23T03:39:09.289Z,2.28
2023-01-23T03:41:38.474Z,1.90
2023-01-23T03:44:05.795Z,2.45
2023-01-23T03:46:32.896Z,2.40
2023-01-23T03:48:59.958Z,2.38
2023-01-23T03:51:27.062Z,2.55
2023-01-23T03:53:54.330Z,3.40
2023-01-23T03:56:21.344Z,2.65
2023-01-23T03:58:48.404Z,2.55
2023-01-23T04:01:15.951Z,2.28
2023-01-23T04:03:43.147Z,2.80
2023-01-23T04:06:10.184Z,2.17
2023-01-23T04:08:37.346Z,2.20
2023-01-23T04:11:08.947Z,2.30
2023-01-23T04:13:36.673Z,2.53
2023-01-23T04:16:05.402Z,2.20
2023-01-23T04:18:33.031Z,2.20
2023-01-23T04:21:00.203Z,2.80
2023-01-23T04:23:27.379Z,2.30
2023-01-23T04:25:54.454Z,2.00
2023-01-23T04:28:21.807Z,2.40
2023-01-23T04:30:52.167Z,2.08
2023-01-23T04:33:20.365Z,1.80
2023-01-23T04:36:07.475Z,2.30
2023-01-23T04:38:35.295Z,2.30
2023-01-23T04:41:03.049Z,2.28
2023-01-23T04:43:30.815Z,2.28
2023-01-23T04:45:58.179Z,2.03
2023-01-23T04:48:25.699Z,2.45
2023-01-23T04:50:53.006Z,1.77
2023-01-23T04:53:20.226Z,2.15
2023-01-23T04:55:49.643Z,1.92
2023-01-23T04:58:19.011Z,2.88
2023-01-23T05:00:46.826Z,2.63
2023-01-23T05:03:15.831Z,3.08
2023-01-23T05:05:44.547Z,2.30
2023-01-23T05:08:12.403Z,2.08
2023-01-23T05:10:39.607Z,1.85
2023-01-23T05:13:07.130Z,2.20
2023-01-23T05:15:34.311Z,2.13
2023-01-23T05:18:01.569Z,2.10
2023-01-23T05:20:28.688Z,2.22
2023-01-23T05:22:58.236Z,2.10
2023-01-23T05:25:28.203Z,2.65
2023-01-23T05:27:55.719Z,1.98
2023-01-23T05:30:23.970Z,2.97
2023-01-23T05:32:51.281Z,2.47
2023-01-23T05:35:18.462Z,2.50
2023-01-23T05:37:50.016Z,2.65
2023-01-23T05:40:17.124Z,2.60
2023-01-23T05:42:44.295Z,2.83
2023-01-23T05:45:12.885Z,3.13
2023-01-23T05:47:39.995Z,2.33
2023-01-23T05:50:08.668Z,2.72
2023-01-23T05:52:36.688Z,2.75
2023-01-23T05:55:04.401Z,2.88
2023-01-23T05:57:31.607Z,2.47
2023-01-23T05:59:58.601Z,2.70
2023-01-23T06:02:25.801Z,2.40
2023-01-23T06:04:55.668Z,2.50
2023-01-23T06:07:22.844Z,2.05
2023-01-23T06:09:49.862Z,2.20
2023-01-23T06:12:16.989Z,2.35
2023-01-23T06:14:44.143Z,2.38
2023-01-23T06:17:12.731Z,2.22
2023-01-23T06:19:39.986Z,2.58
2023-01-23T06:22:07.049Z,2.40
2023-01-23T06:24:34.054Z,2.15
2023-01-23T06:27:01.176Z,2.33
2023-01-23T06:29:28.197Z,2.10
2023-01-23T06:31:55.494Z,2.42
2023-01-23T06:34:22.665Z,1.88
2023-01-23T06:36:49.657Z,1.92
2023-01-23T06:39:16.829Z,2.13
2023-01-23T06:41:44.564Z,2.35
2023-01-23T06:44:12.114Z,2.15
2023-01-23T06:46:39.153Z,2.20
2023-01-23T06:49:06.963Z,1.60
2023-01-23T06:51:34.664Z,1.65
2023-01-23T06:54:01.706Z,2.15
2023-01-23T06:56:29.015Z,1.88
2023-01-23T06:58:56.536Z,2.25
2023-01-23T07:01:24.511Z,1.70
2023-01-23T07:03:51.849Z,1.80
2023-01-23T07:06:19.001Z,1.88
2023-01-23T07:08:46.085Z,1.85
2023-01-23T07:11:13.387Z,1.80
2023-01-23T07:13:40.421Z,1.77
2023-01-23T07:16:07.952Z,2.08
2023-01-23T07:18:36.252Z,1.60
2023-01-23T07:21:06.756Z,1.83
2023-01-23T07:23:34.891Z,1.90
2023-01-23T07:26:04.484Z,1.88
2023-01-23T07:28:31.556Z,2.03
2023-01-23T07:30:59.986Z,1.95
2023-01-23T07:33:27.235Z,1.65
2023-01-23T07:35:54.816Z,1.70
2023-01-23T07:38:23.639Z,1.60
2023-01-23T07:40:51.329Z,2.00
2023-01-23T07:43:18.927Z,1.40
2023-01-23T07:45:45.977Z,1.95
2023-01-23T07:48:13.173Z,1.60
2023-01-23T07:50:40.545Z,2.00
2023-01-23T07:53:07.579Z,1.70
2023-01-23T07:55:34.939Z,1.88
2023-01-23T07:58:02.043Z,1.88
2023-01-23T08:00:30.494Z,1.80
2023-01-23T08:02:58.056Z,2.10
2023-01-23T08:05:25.964Z,2.00
2023-01-23T08:08:07.347Z,1.55
2023-01-23T08:10:38.682Z,2.38
2023-01-23T08:13:05.717Z,1.85
2023-01-23T08:15:32.780Z,2.10
2023-01-23T08:17:59.759Z,2.22
2023-01-23T08:20:26.959Z,1.52
2023-01-23T08:22:54.113Z,2.00
2023-01-23T08:25:21.263Z,1.80
2023-01-23T08:27:48.712Z,1.50
2023-01-23T08:30:16.081Z,1.80
2023-01-23T08:32:43.324Z,1.50
2023-01-23T08:35:10.601Z,1.70
2023-01-23T08:37:38.135Z,1.63
2023-01-23T08:40:05.736Z,2.03
2023-01-23T08:42:33.060Z,1.90
2023-01-23T08:45:00.090Z,1.83
2023-01-23T08:47:27.560Z,2.10
2023-01-23T08:49:54.580Z,1.75
2023-01-23T08:52:21.643Z,2.22
2023-01-23T08:54:49.052Z,2.00
2023-01-23T08:57:16.157Z,1.77
2023-01-23T08:59:44.600Z,1.85
2023-01-23T09:02:14.429Z,2.38
2023-01-23T09:04:41.614Z,1.98
2023-01-23T09:07:08.681Z,2.13
2023-01-23T09:09:35.963Z,1.98
2023-01-23T09:12:03.181Z,2.28
2023-01-23T09:14:30.213Z,2.30
2023-01-23T09:16:57.377Z,2.05
2023-01-23T09:19:24.423Z,2.15
2023-01-23T09:21:54.709Z,2.08
2023-01-23T09:24:21.828Z,2.35
2023-01-23T09:26:48.876Z,1.50
2023-01-23T09:29:16.125Z,2.15
2023-01-23T09:31:43.200Z,1.88
2023-01-23T09:34:10.332Z,2.22
2023-01-23T09:36:43.347Z,2.40
2023-01-23T09:39:11.359Z,2.60
2023-01-23T09:41:39.618Z,2.47
2023-01-23T09:44:14.674Z,1.92
2023-01-23T09:46:59.499Z,2.10
2023-01-23T09:49:37.597Z,1.77
2023-01-23T09:52:13.488Z,1.95
2023-01-23T09:54:40.497Z,2.25
2023-01-23T09:57:15.851Z,2.10
2023-01-23T09:59:59.744Z,1.92
2023-01-23T10:02:28.738Z,2.03
2023-01-23T10:04:58.414Z,2.10
2023-01-23T10:07:38.032Z,2.33
2023-01-23T10:10:35.610Z,2.55
2023-01-23T10:13:16.531Z,1.75
2023-01-23T10:16:14.959Z,1.95
2023-01-23T10:18:54.590Z,1.88
2023-01-23T10:22:03.657Z,2.50
2023-01-23T10:24:45.750Z,2.60
2023-01-23T10:27:46.255Z,2.30
2023-01-23T10:30:22.518Z,1.98
2023-01-23T10:33:02.279Z,2.38
2023-01-23T10:35:56.763Z,2.63
2023-01-23T10:41:14.874Z,2.10
2023-01-23T10:43:44.158Z,2.20
2023-01-23T10:46:20.516Z,2.50
2023-01-23T10:48:52.316Z,2.78
2023-01-23T10:51:47.209Z,2.47
2023-01-23T10:54:31.408Z,2.60
2023-01-23T10:57:02.627Z,3.83
2023-01-23T10:59:35.752Z,4.05
2023-01-23T11:02:25.310Z,3.50
2023-01-23T11:04:52.874Z,3.88
2023-01-23T11:07:25.310Z,3.30
2023-01-23T11:10:01.662Z,3.20
2023-01-23T11:12:34.479Z,3.38
2023-01-23T11:15:49.483Z,3.17
2023-01-23T11:18:34.565Z,3.00
2023-01-23T11:21:02.458Z,2.47
2023-01-23T11:23:31.222Z,3.05
2023-01-23T11:25:58.454Z,2.60
2023-01-23T11:28:31.218Z,2.75
2023-01-23T11:31:12.842Z,2.58
2023-01-23T11:34:23.687Z,2.40
2023-01-23T11:37:14.620Z,2.10
2023-01-23T11:39:53.439Z,2.30
2023-01-23T11:42:21.145Z,2.42
2023-01-23T11:44:49.911Z,2.78
2023-01-23T11:47:41.745Z,2.20
2023-01-23T11:50:09.798Z,2.30
2023-01-23T11:52:53.266Z,2.40
2023-01-23T11:55:38.966Z,2.58
2023-01-23T11:58:49.327Z,2.60
2023-01-23T12:01:34.638Z,2.30
2023-01-23T12:04:20.096Z,2.65
2023-01-23T12:07:02.245Z,2.60
2023-01-23T12:09:43.346Z,2.75
2023-01-23T12:12:39.567Z,2.67
2023-01-23T12:15:28.222Z,2.65
2023-01-23T12:18:25.928Z,2.65
2023-01-23T12:21:19.585Z,2.90
2023-01-23T12:24:00.741Z,3.10
2023-01-23T12:26:29.840Z,3.15
2023-01-23T12:28:56.840Z,3.50
2023-01-23T12:31:57.465Z,2.80
2023-01-23T12:34:45.377Z,3.75
2023-01-23T12:37:43.896Z,3.03
2023-01-23T12:40:26.842Z,3.22
2023-01-23T12:43:07.926Z,3.60
2023-01-23T12:45:38.465Z,3.25
2023-01-23T12:48:34.267Z,3.13
2023-01-23T12:51:21.264Z,3.30
2023-01-23T12:53:52.827Z,2.97
2023-01-23T12:56:35.398Z,2.65
2023-01-23T12:59:08.613Z,2.88
2023-01-23T13:01:38.460Z,3.70
2023-01-23T13:04:32.339Z,3.38
2023-01-23T13:07:17.072Z,3.25
2023-01-23T13:10:14.194Z,3.28
2023-01-23T13:12:41.380Z,3.38
2023-01-23T13:15:18.987Z,3.83
2023-01-23T13:18:01.120Z,3.17
2023-01-23T13:20:48.664Z,3.20
2023-01-23T13:23:35.719Z,3.25
2023-01-23T13:26:21.269Z,2.92
2023-01-23T13:28:56.630Z,3.17
2023-01-23T13:31:42.453Z,2.53
2023-01-23T13:34:18.799Z,3.22
2023-01-23T13:36:50.255Z,3.08
2023-01-23T13:39:17.338Z,2.75
2023-01-23T13:41:46.110Z,3.25
2023-01-23T13:44:40.788Z,2.92
2023-01-23T14:22:30.543Z,2.83
2023-01-23T14:24:58.191Z,3.05
2023-01-23T14:27:54.660Z,3.10
2023-01-23T14:30:28.490Z,2.65
2023-01-23T14:32:56.263Z,3.28
2023-01-23T14:35:32.113Z,2.80
2023-01-23T14:38:06.850Z,2.55
2023-01-23T14:40:48.956Z,2.72
2023-01-23T14:43:23.832Z,3.23
2023-01-23T14:48:25.727Z,2.50
2023-01-23T14:51:06.858Z,3.38
2023-01-23T14:53:33.996Z,2.95
2023-01-23T14:56:02.256Z,2.67
2023-01-23T14:58:30.671Z,2.80
2023-01-23T15:00:58.300Z,2.70
2023-01-23T15:03:39.413Z,2.63
2023-01-23T15:06:19.346Z,3.30
2023-01-23T15:08:47.656Z,3.42
2023-01-23T15:11:15.051Z,2.05
2023-01-23T15:13:48.585Z,2.75
2023-01-23T15:16:26.456Z,3.13
2023-01-23T15:19:01.971Z,2.67
2023-01-23T15:21:40.540Z,3.08
2023-01-23T15:24:10.644Z,2.70
2023-01-23T15:26:40.472Z,2.47
2023-01-23T15:29:07.515Z,2.90
2023-01-23T15:31:40.719Z,3.13
2023-01-23T15:34:17.025Z,3.28
2023-01-23T15:37:00.699Z,3.22
2023-01-23T15:39:41.503Z,3.55
2023-01-23T15:42:14.504Z,3.17
2023-01-23T15:44:43.113Z,3.03
2023-01-23T15:47:11.940Z,3.33
2023-01-23T15:49:40.342Z,2.90
2023-01-23T15:53:06.097Z,3.03
2023-01-23T15:55:33.147Z,2.80
2023-01-23T15:58:01.461Z,3.03
2023-01-23T16:00:29.955Z,2.88
2023-01-23T16:02:59.453Z,2.50
2023-01-23T16:05:29.984Z,2.65
2023-01-23T16:08:01.378Z,2.67
2023-01-23T16:10:31.615Z,2.67
2023-01-23T16:12:59.224Z,2.75
2023-01-23T16:15:31.772Z,2.50
2023-01-23T16:17:59.095Z,3.25
2023-01-23T16:20:43.193Z,3.40
2023-01-23T16:25:49.369Z,2.88
2023-01-23T16:28:20.388Z,3.10
2023-01-23T16:30:48.598Z,3.13
2023-01-23T16:33:16.141Z,3.17
2023-01-23T16:35:43.667Z,2.50
2023-01-23T16:38:20.757Z,3.10
2023-01-23T16:40:47.866Z,2.30
2023-01-23T16:43:14.918Z,2.83
2023-01-23T16:45:41.987Z,2.75
2023-01-23T16:48:10.973Z,2.92
2023-01-23T16:50:46.554Z,2.97
2023-01-23T16:53:28.670Z,2.72
2023-01-23T16:55:58.219Z,2.63
2023-01-23T16:58:28.931Z,2.33
2023-01-23T17:01:01.890Z,2.17
2023-01-23T17:03:33.102Z,2.42
2023-01-23T17:06:00.464Z,2.40
2023-01-23T17:08:28.311Z,2.85
2023-01-23T17:10:58.865Z,2.50
2023-01-23T17:13:27.053Z,2.30
2023-01-23T17:15:55.984Z,1.88
2023-01-23T17:18:28.531Z,2.70
2023-01-23T17:20:56.582Z,2.45
2023-01-23T17:23:25.479Z,2.72
2023-01-23T17:26:00.779Z,4.20
2023-01-23T17:28:29.136Z,2.58
2023-01-23T17:31:00.694Z,2.95
2023-01-23T17:33:31.866Z,3.10
2023-01-23T17:36:01.038Z,2.90
2023-01-23T17:38:34.740Z,3.22
2023-01-23T17:41:02.393Z,3.17
2023-01-23T17:43:29.634Z,2.75
2023-01-23T17:45:57.111Z,2.90
2023-01-23T17:48:30.527Z,2.80
2023-01-23T17:50:58.174Z,2.88
2023-01-23T17:53:25.310Z,2.78
2023-01-23T17:55:53.073Z,2.70
2023-01-23T17:58:21.415Z,2.60
2023-01-23T18:00:51.386Z,2.85
2023-01-23T18:03:22.111Z,2.90
2023-01-23T18:05:49.579Z,2.90
2023-01-23T18:08:18.833Z,2.65
2023-01-23T18:10:48.162Z,3.10
2023-01-23T18:13:37.663Z,3.25
2023-01-23T18:16:27.410Z,2.58
2023-01-23T18:19:01.170Z,2.63
2023-01-23T18:21:28.789Z,2.15
2023-01-23T18:23:56.265Z,2.90
2023-01-23T18:26:58.633Z,2.83
2023-01-23T18:29:34.189Z,2.70
2023-01-23T18:32:38.560Z,2.75
2023-01-23T18:35:54.875Z,2.70
2023-01-23T18:38:37.190Z,2.40
2023-01-23T18:41:15.960Z,2.70
2023-01-23T18:44:01.345Z,2.78
2023-01-23T18:46:28.582Z,3.97
2023-01-23T18:48:55.898Z,3.15
2023-01-23T18:51:49.518Z,3.00
2023-01-23T18:54:16.524Z,2.90
2023-01-23T18:56:50.879Z,3.30
2023-01-23T18:59:49.697Z,3.00
2023-01-23T19:02:31.953Z,2.38
2023-01-23T19:05:11.173Z,2.63
2023-01-23T19:07:38.641Z,2.38
2023-01-23T19:10:07.856Z,2.47
2023-01-23T19:12:41.971Z,2.63
2023-01-23T19:15:21.563Z,2.38
2023-01-23T19:18:20.624Z,2.17
2023-01-23T19:21:10.986Z,2.42
2023-01-23T19:23:46.800Z,2.63
2023-01-23T19:26:14.766Z,2.58
2023-01-23T19:28:42.113Z,2.38
2023-01-23T19:31:20.151Z,2.25
2023-01-23T19:33:47.737Z,2.47
2023-01-23T19:36:15.034Z,2.70
2023-01-23T19:38:42.587Z,2.70
2023-01-23T19:41:44.759Z,2.53
2023-01-23T19:44:25.381Z,2.22
2023-01-23T19:46:52.864Z,3.25
2023-01-23T19:49:20.023Z,2.05
2023-01-23T19:51:47.404Z,2.30
2023-01-23T19:54:15.599Z,2.10
2023-01-23T19:56:43.042Z,2.63
2023-01-23T19:59:10.198Z,1.92
2023-01-23T20:01:43.657Z,1.98
2023-01-23T20:04:20.220Z,1.98
2023-01-23T20:06:49.286Z,2.40
2023-01-23T20:09:16.406Z,2.20
2023-01-23T20:11:45.028Z,2.20
2023-01-23T20:14:13.165Z,2.63
2023-01-23T20:16:43.383Z,2.45
2023-01-23T20:19:15.175Z,2.42
2023-01-23T20:21:43.057Z,2.05
2023-01-23T20:24:10.321Z,2.42
2023-01-23T20:26:37.671Z,2.40
2023-01-23T20:29:06.042Z,2.47
2023-01-23T20:31:33.469Z,2.45
2023-01-23T20:34:00.670Z,2.70
2023-01-23T20:36:29.009Z,2.38
2023-01-23T20:38:57.188Z,2.70
2023-01-23T20:41:24.291Z,2.45
2023-01-23T20:43:51.492Z,2.50
2023-01-23T20:46:19.651Z,2.55
2023-01-23T20:48:47.145Z,2.08
2023-01-23T20:51:16.531Z,2.67
2023-01-23T20:53:44.263Z,2.92
2023-01-23T20:56:16.193Z,2.85
2023-01-23T20:59:04.724Z,2.50
2023-01-23T21:01:54.000Z,2.80
2023-01-23T21:04:23.044Z,2.40
2023-01-23T21:06:50.222Z,2.42
2023-01-23T21:09:17.815Z,2.10
2023-01-23T21:11:45.156Z,2.60
2023-01-23T21:14:13.776Z,2.58
2023-01-23T21:16:40.929Z,2.50
2023-01-23T21:19:08.115Z,3.15
2023-01-23T21:21:35.742Z,2.63
2023-01-23T21:24:02.965Z,2.47
2023-01-23T21:26:30.750Z,2.30
2023-01-23T21:28:58.853Z,2.58
2023-01-23T21:31:33.429Z,2.55
2023-01-23T21:34:06.287Z,2.53
2023-01-23T21:36:33.412Z,2.35
2023-01-23T21:39:00.658Z,2.90
2023-01-23T21:41:27.716Z,2.42
2023-01-23T21:43:54.808Z,2.28
2023-01-23T21:46:22.099Z,2.75
2023-01-23T21:48:49.244Z,2.53
2023-01-23T21:51:18.448Z,2.50
2023-01-23T21:53:47.838Z,2.20
2023-01-23T21:56:17.441Z,1.98
2023-01-23T21:58:44.635Z,2.28
2023-01-23T22:01:33.417Z,2.30
2023-01-23T22:04:10.547Z,2.03
2023-01-23T22:06:40.330Z,2.60
2023-01-23T22:09:08.488Z,2.20
2023-01-23T22:11:36.011Z,1.70
2023-01-23T22:14:03.299Z,2.50
2023-01-23T22:16:47.403Z,2.50
2023-01-23T22:19:17.932Z,2.50
2023-01-23T22:21:46.899Z,2.47
2023-01-23T22:24:15.064Z,2.53
2023-01-23T22:26:42.925Z,2.17
2023-01-23T22:29:12.301Z,2.83
2023-01-23T22:31:39.429Z,1.77
2023-01-23T22:34:06.609Z,1.70
2023-01-23T22:36:33.785Z,2.08
2023-01-23T22:39:00.925Z,2.30
2023-01-23T22:41:28.916Z,1.90
2023-01-23T22:43:59.484Z,2.25
2023-01-23T22:46:27.839Z,2.22
2023-01-23T22:48:55.049Z,1.73
2023-01-23T22:51:24.932Z,2.08
2023-01-23T22:53:56.518Z,2.45
2023-01-23T22:56:25.473Z,2.15
2023-01-23T22:58:54.606Z,1.60
2023-01-23T23:01:27.364Z,1.70
2023-01-23T23:03:57.854Z,2.15
2023-01-23T23:06:25.465Z,2.28
2023-01-23T23:08:52.727Z,1.80
2023-01-23T23:11:22.223Z,1.90
2023-01-23T23:13:49.646Z,1.80
2023-01-23T23:16:19.877Z,1.73
2023-01-23T23:18:48.885Z,2.03
2023-01-23T23:21:18.361Z,1.50
2023-01-23T23:23:46.014Z,1.80
2023-01-23T23:26:13.420Z,1.77
2023-01-23T23:28:42.320Z,1.65
2023-01-23T23:31:10.485Z,1.50
2023-01-23T23:33:37.880Z,1.50
2023-01-23T23:36:05.993Z,1.58
2023-01-23T23:38:33.300Z,1.60
2023-01-23T23:41:02.945Z,1.50
2023-01-23T23:43:30.346Z,1.70
2023-01-23T23:46:00.598Z,1.42
2023-01-23T23:48:28.930Z,1.38
2023-01-23T23:51:00.330Z,1.52
2023-01-23T23:53:27.716Z,1.55
2023-01-23T23:55:54.943Z,1.63
2023-01-23T23:58:24.081Z,1.48
